createdAt,value
2018-08-11T00:00:32.920Z,14.40
2018-08-11T00:01:06.842Z,14.50
2018-08-11T00:01:40.442Z,14.40
2018-08-11T00:02:14.112Z,14.50
2018-08-11T00:02:47.717Z,14.50
2018-08-11T00:03:21.325Z,14.40
2018-08-11T00:03:54.949Z,14.40
2018-08-11T00:04:28.581Z,14.40
2018-08-11T00:05:02.204Z,14.50
2018-08-11T00:05:35.795Z,14.40
2018-08-11T00:06:09.424Z,14.40
2018-08-11T00:06:43.050Z,14.50
2018-08-11T00:07:16.645Z,14.40
2018-08-11T00:07:50.593Z,14.40
2018-08-11T00:08:24.241Z,14.50
2018-08-11T00:08:57.844Z,14.50
2018-08-11T00:09:31.450Z,14.50
2018-08-11T00:10:06.965Z,14.30
2018-08-11T00:10:40.594Z,14.40
2018-08-11T00:11:14.259Z,14.40
2018-08-11T00:11:47.814Z,14.40
2018-08-11T00:12:21.433Z,14.40
2018-08-11T00:12:55.022Z,14.40
2018-08-11T00:13:28.691Z,14.40
2018-08-11T00:14:02.275Z,14.40
2018-08-11T00:14:35.955Z,14.40
2018-08-11T00:15:14.847Z,14.40
2018-08-11T00:15:48.424Z,14.40
2018-08-11T00:16:22.042Z,14.40
2018-08-11T00:16:55.639Z,14.40
2018-08-11T00:17:29.540Z,14.30
2018-08-11T00:18:03.181Z,14.30
2018-08-11T00:18:36.763Z,14.30
2018-08-11T00:19:10.328Z,14.40
2018-08-11T00:19:43.948Z,14.40
2018-08-11T00:20:23.901Z,14.30
2018-08-11T00:20:57.460Z,14.30
2018-08-11T00:21:31.128Z,14.30
2018-08-11T00:22:04.782Z,14.30
2018-08-11T00:22:39.025Z,14.30
2018-08-11T00:23:12.744Z,14.30
2018-08-11T00:23:46.397Z,14.30
2018-08-11T00:24:20.031Z,14.20
2018-08-11T00:24:53.567Z,14.30
2018-08-11T00:25:27.207Z,14.20
2018-08-11T00:26:00.869Z,14.20
2018-08-11T00:26:34.491Z,14.20
2018-08-11T00:27:08.086Z,14.20
2018-08-11T00:27:41.764Z,14.30
2018-08-11T00:28:15.347Z,14.20
2018-08-11T00:28:48.963Z,14.20
2018-08-11T00:29:22.535Z,14.20
2018-08-11T00:29:56.099Z,14.20
2018-08-11T00:30:29.816Z,14.20
2018-08-11T00:31:03.407Z,14.10
2018-08-11T00:31:37.229Z,14.20
2018-08-11T00:32:10.875Z,14.20
2018-08-11T00:32:44.483Z,14.10
2018-08-11T00:33:18.036Z,14.10
2018-08-11T00:33:51.596Z,14.20
2018-08-11T00:34:25.161Z,14.20
2018-08-11T00:34:59.362Z,14.10
2018-08-11T00:35:32.973Z,14.10
2018-08-11T00:36:06.642Z,14.10
2018-08-11T00:36:40.217Z,14.10
2018-08-11T00:37:13.785Z,14.10
2018-08-11T00:37:47.345Z,14.20
2018-08-11T00:38:20.970Z,14.10
2018-08-11T00:38:54.541Z,14.10
2018-08-11T00:39:28.116Z,14.00
2018-08-11T00:40:01.769Z,14.10
2018-08-11T00:40:35.315Z,14.00
2018-08-11T00:41:08.895Z,14.10
2018-08-11T00:41:42.473Z,14.10
2018-08-11T00:42:16.059Z,14.00
2018-08-11T00:42:50.304Z,14.00
2018-08-11T00:43:23.838Z,14.10
2018-08-11T00:43:57.486Z,14.10
2018-08-11T00:44:31.105Z,14.10
2018-08-11T00:45:08.447Z,14.00
2018-08-11T00:45:42.065Z,14.10
2018-08-11T00:46:15.718Z,14.00
2018-08-11T00:46:49.275Z,14.10
2018-08-11T00:47:22.861Z,14.00
2018-08-11T00:47:56.423Z,14.00
2018-08-11T00:48:30.152Z,14.00
2018-08-11T00:49:03.840Z,14.00
2018-08-11T00:49:37.534Z,14.00
2018-08-11T00:50:23.930Z,14.00
2018-08-11T00:50:57.557Z,14.00
2018-08-11T00:51:31.178Z,14.00
2018-08-11T00:52:04.889Z,14.00
2018-08-11T00:52:38.587Z,14.00
2018-08-11T00:53:12.245Z,14.10
2018-08-11T00:53:45.834Z,14.10
2018-08-11T00:54:19.433Z,14.10
2018-08-11T00:54:53.007Z,14.00
2018-08-11T00:55:26.610Z,14.00
2018-08-11T00:56:00.235Z,14.00
2018-08-11T00:56:33.796Z,14.00
2018-08-11T00:57:07.454Z,14.10
2018-08-11T00:57:41.375Z,14.00
2018-08-11T00:58:14.923Z,14.00
2018-08-11T00:58:48.596Z,14.00
2018-08-11T00:59:22.159Z,14.00
2018-08-11T00:59:55.765Z,14.10
2018-08-11T01:00:29.303Z,14.00
2018-08-11T01:01:02.919Z,14.00
2018-08-11T01:01:36.519Z,14.10
2018-08-11T01:02:10.165Z,14.00
2018-08-11T01:02:43.925Z,14.10
2018-08-11T01:03:17.581Z,14.00
2018-08-11T01:03:51.182Z,14.10
2018-08-11T01:04:25.090Z,14.10
2018-08-11T01:04:58.668Z,14.10
2018-08-11T01:05:32.309Z,14.00
2018-08-11T01:06:06.064Z,14.00
2018-08-11T01:06:39.689Z,14.00
2018-08-11T01:07:13.237Z,14.00
2018-08-11T01:07:47.395Z,14.00
2018-08-11T01:08:20.977Z,14.00
2018-08-11T01:08:54.547Z,13.90
2018-08-11T01:09:28.126Z,14.00
2018-08-11T01:10:01.676Z,14.00
2018-08-11T01:10:35.294Z,14.00
2018-08-11T01:11:08.934Z,14.00
2018-08-11T01:11:42.527Z,14.00
2018-08-11T01:12:16.114Z,14.00
2018-08-11T01:12:49.710Z,14.00
2018-08-11T01:13:23.285Z,14.00
2018-08-11T01:13:56.891Z,14.00
2018-08-11T01:14:30.495Z,14.00
2018-08-11T01:15:05.287Z,14.00
2018-08-11T01:15:38.912Z,14.10
2018-08-11T01:16:13.507Z,14.00
2018-08-11T01:16:47.095Z,14.00
2018-08-11T01:17:20.655Z,14.10
2018-08-11T01:17:54.218Z,14.00
2018-08-11T01:18:27.745Z,13.90
2018-08-11T01:19:01.357Z,14.00
2018-08-11T01:19:34.899Z,13.90
2018-08-11T01:20:10.336Z,14.00
2018-08-11T01:20:43.947Z,13.90
2018-08-11T01:21:17.583Z,13.90
2018-08-11T01:21:51.221Z,14.00
2018-08-11T01:22:24.890Z,14.00
2018-08-11T01:22:58.587Z,13.90
2018-08-11T01:23:32.125Z,13.90
2018-08-11T01:24:05.802Z,14.00
2018-08-11T01:24:39.437Z,13.90
2018-08-11T01:25:13.641Z,13.90
2018-08-11T01:25:47.223Z,14.00
2018-08-11T01:26:20.763Z,13.90
2018-08-11T01:26:54.461Z,13.90
2018-08-11T01:27:28.047Z,14.00
2018-08-11T01:28:01.604Z,13.90
2018-08-11T01:28:35.155Z,13.90
2018-08-11T01:29:08.755Z,13.90
2018-08-11T01:29:42.311Z,13.90
2018-08-11T01:30:19.514Z,14.00
2018-08-11T01:30:53.088Z,14.00
2018-08-11T01:31:26.700Z,13.90
2018-08-11T01:32:00.307Z,14.00
2018-08-11T01:32:33.917Z,13.90
2018-08-11T01:33:07.541Z,13.90
2018-08-11T01:33:41.124Z,13.90
2018-08-11T01:34:14.741Z,13.90
2018-08-11T01:34:48.311Z,13.90
2018-08-11T01:35:21.896Z,13.90
2018-08-11T01:35:55.475Z,13.90
2018-08-11T01:36:29.017Z,13.90
2018-08-11T01:37:02.567Z,13.90
2018-08-11T01:37:36.769Z,13.90
2018-08-11T01:38:10.389Z,13.90
2018-08-11T01:38:43.945Z,13.90
2018-08-11T01:39:17.557Z,13.90
2018-08-11T01:39:51.117Z,13.90
2018-08-11T01:40:24.679Z,13.80
2018-08-11T01:40:58.249Z,13.90
2018-08-11T01:41:31.813Z,13.80
2018-08-11T01:42:05.365Z,13.90
2018-08-11T01:42:39.886Z,13.80
2018-08-11T01:43:13.525Z,13.80
2018-08-11T01:43:47.120Z,13.80
2018-08-11T01:44:20.720Z,13.80
2018-08-11T01:44:54.354Z,13.80
2018-08-11T01:45:27.964Z,13.80
2018-08-11T01:46:01.563Z,13.80
2018-08-11T01:46:35.120Z,13.80
2018-08-11T01:47:08.657Z,13.80
2018-08-11T01:47:42.459Z,13.80
2018-08-11T01:48:16.027Z,13.80
2018-08-11T01:48:49.575Z,13.80
2018-08-11T01:49:23.148Z,13.90
2018-08-11T01:49:56.911Z,13.80
2018-08-11T01:50:30.492Z,13.80
2018-08-11T01:51:04.086Z,13.80
2018-08-11T01:51:37.702Z,13.70
2018-08-11T01:52:11.297Z,13.80
2018-08-11T01:52:45.977Z,13.80
2018-08-11T01:53:19.521Z,13.80
2018-08-11T01:53:53.081Z,13.80
2018-08-11T01:54:26.669Z,13.70
2018-08-11T01:55:00.297Z,13.80
2018-08-11T01:55:33.851Z,13.70
2018-08-11T01:56:07.445Z,13.70
2018-08-11T01:56:40.967Z,13.70
2018-08-11T01:57:14.554Z,13.80
2018-08-11T01:57:48.125Z,13.70
2018-08-11T01:58:21.701Z,13.70
2018-08-11T01:58:55.246Z,13.70
2018-08-11T01:59:28.871Z,13.80
2018-08-11T02:00:02.563Z,13.80
2018-08-11T02:00:36.114Z,13.70
2018-08-11T02:01:09.734Z,13.70
2018-08-11T02:01:43.319Z,13.70
2018-08-11T02:02:16.926Z,13.70
2018-08-11T02:02:50.523Z,13.70
2018-08-11T02:03:24.088Z,13.70
2018-08-11T02:03:57.664Z,13.80
2018-08-11T02:04:31.228Z,13.70
2018-08-11T02:05:05.333Z,13.70
2018-08-11T02:05:38.876Z,13.70
2018-08-11T02:06:12.488Z,13.70
2018-08-11T02:06:46.033Z,13.80
2018-08-11T02:07:19.609Z,13.80
2018-08-11T02:07:53.153Z,13.70
2018-08-11T02:08:26.731Z,13.80
2018-08-11T02:09:00.292Z,13.70
2018-08-11T02:09:33.875Z,13.70
2018-08-11T02:10:11.885Z,13.80
2018-08-11T02:10:45.464Z,13.80
2018-08-11T02:11:19.113Z,13.80
2018-08-11T02:11:52.611Z,13.80
2018-08-11T02:12:26.131Z,13.90
2018-08-11T02:12:59.720Z,13.70
2018-08-11T02:13:33.303Z,13.60
2018-08-11T02:14:07.230Z,13.80
2018-08-11T02:14:40.788Z,13.80
2018-08-11T02:15:14.809Z,13.80
2018-08-11T02:15:48.397Z,13.70
2018-08-11T02:16:21.982Z,13.80
2018-08-11T02:16:55.641Z,13.80
2018-08-11T02:17:29.231Z,13.80
2018-08-11T02:18:02.899Z,13.80
2018-08-11T02:18:36.435Z,13.80
2018-08-11T02:19:10.060Z,13.80
2018-08-11T02:19:43.656Z,13.90
2018-08-11T02:20:18.543Z,13.80
2018-08-11T02:20:52.059Z,13.90
2018-08-11T02:21:25.625Z,13.80
2018-08-11T02:21:59.197Z,13.90
2018-08-11T02:22:32.759Z,13.90
2018-08-11T02:23:06.516Z,13.90
2018-08-11T02:23:40.072Z,14.00
2018-08-11T02:24:13.656Z,13.90
2018-08-11T02:24:47.219Z,13.90
2018-08-11T02:25:20.831Z,14.00
2018-08-11T02:25:54.432Z,13.90
2018-08-11T02:26:27.972Z,13.90
2018-08-11T02:27:01.493Z,13.90
2018-08-11T02:27:35.369Z,13.90
2018-08-11T02:28:08.944Z,13.90
2018-08-11T02:28:42.515Z,14.00
2018-08-11T02:29:16.074Z,13.90
2018-08-11T02:29:49.625Z,14.00
2018-08-11T02:30:23.268Z,14.00
2018-08-11T02:30:56.855Z,14.00
2018-08-11T02:31:30.465Z,14.00
2018-08-11T02:32:04.379Z,13.90
2018-08-11T02:32:38.283Z,13.90
2018-08-11T02:33:11.923Z,14.00
2018-08-11T02:33:45.533Z,14.00
2018-08-11T02:34:19.105Z,14.00
2018-08-11T02:34:52.683Z,13.90
2018-08-11T02:35:26.284Z,14.00
2018-08-11T02:35:59.831Z,14.00
2018-08-11T02:36:33.373Z,14.00
2018-08-11T02:37:07.046Z,14.00
2018-08-11T02:37:41.013Z,14.10
2018-08-11T02:38:14.621Z,14.10
2018-08-11T02:38:48.171Z,14.00
2018-08-11T02:39:21.788Z,13.90
2018-08-11T02:39:55.411Z,14.00
2018-08-11T02:40:28.971Z,14.10
2018-08-11T02:41:02.518Z,14.00
2018-08-11T02:41:36.135Z,14.00
2018-08-11T02:42:09.769Z,14.00
2018-08-11T02:42:43.397Z,14.10
2018-08-11T02:43:16.971Z,14.00
2018-08-11T02:43:50.496Z,14.00
2018-08-11T02:44:24.083Z,14.00
2018-08-11T02:44:57.717Z,14.00
2018-08-11T02:45:31.287Z,14.10
2018-08-11T02:46:04.986Z,14.10
2018-08-11T02:46:38.623Z,14.00
2018-08-11T02:47:12.203Z,14.00
2018-08-11T02:47:46.573Z,14.00
2018-08-11T02:48:20.158Z,14.00
2018-08-11T02:48:53.704Z,14.00
2018-08-11T02:49:27.269Z,14.00
2018-08-11T02:50:00.816Z,14.00
2018-08-11T02:50:34.402Z,14.10
2018-08-11T02:51:07.969Z,14.00
2018-08-11T02:51:41.505Z,14.00
2018-08-11T02:52:15.097Z,14.00
2018-08-11T02:52:48.629Z,13.90
2018-08-11T02:53:22.201Z,14.00
2018-08-11T02:53:55.761Z,13.90
2018-08-11T02:54:29.310Z,14.00
2018-08-11T02:55:02.965Z,14.00
2018-08-11T02:55:36.521Z,13.90
2018-08-11T02:56:10.097Z,14.10
2018-08-11T02:56:43.665Z,14.00
2018-08-11T02:57:17.205Z,14.00
2018-08-11T02:57:50.751Z,13.90
2018-08-11T02:58:24.343Z,14.00
2018-08-11T02:58:57.929Z,14.00
2018-08-11T02:59:31.459Z,14.10
2018-08-11T03:00:08.360Z,14.00
2018-08-11T03:00:41.930Z,14.00
2018-08-11T03:01:15.501Z,14.00
2018-08-11T03:01:49.065Z,14.10
2018-08-11T03:02:22.697Z,14.10
2018-08-11T03:02:56.265Z,14.10
2018-08-11T03:03:29.815Z,14.00
2018-08-11T03:04:03.406Z,14.00
2018-08-11T03:04:36.921Z,14.00
2018-08-11T03:05:10.473Z,14.00
2018-08-11T03:05:44.022Z,14.10
2018-08-11T03:06:17.605Z,14.10
2018-08-11T03:06:51.501Z,14.10
2018-08-11T03:07:25.061Z,14.10
2018-08-11T03:07:58.596Z,14.10
2018-08-11T03:08:32.138Z,14.10
2018-08-11T03:09:08.091Z,14.10
2018-08-11T03:09:41.615Z,14.10
2018-08-11T03:10:15.183Z,14.10
2018-08-11T03:10:48.741Z,14.10
2018-08-11T03:11:22.339Z,14.10
2018-08-11T03:11:55.897Z,14.10
2018-08-11T03:12:29.479Z,14.10
2018-08-11T03:13:03.046Z,14.10
2018-08-11T03:13:36.574Z,14.20
2018-08-11T03:14:10.248Z,14.20
2018-08-11T03:14:43.693Z,14.10
2018-08-11T03:15:17.280Z,14.20
2018-08-11T03:15:50.877Z,14.30
2018-08-11T03:16:24.458Z,14.30
2018-08-11T03:16:57.993Z,14.20
2018-08-11T03:17:31.537Z,14.30
2018-08-11T03:18:05.271Z,14.20
2018-08-11T03:18:38.813Z,14.10
2018-08-11T03:19:12.361Z,14.20
2018-08-11T03:19:45.947Z,14.10
2018-08-11T03:20:19.495Z,14.00
2018-08-11T03:20:53.111Z,14.10
2018-08-11T03:21:26.637Z,14.00
2018-08-11T03:22:00.230Z,14.00
2018-08-11T03:22:33.785Z,14.00
2018-08-11T03:23:07.319Z,14.00
2018-08-11T03:23:40.865Z,13.90
2018-08-11T03:24:14.401Z,13.90
2018-08-11T03:24:47.997Z,13.90
2018-08-11T03:25:21.555Z,14.00
2018-08-11T03:25:55.132Z,14.00
2018-08-11T03:26:28.655Z,14.00
2018-08-11T03:27:02.242Z,14.00
2018-08-11T03:27:35.775Z,14.10
2018-08-11T03:28:09.293Z,14.10
2018-08-11T03:28:42.827Z,14.10
2018-08-11T03:29:16.335Z,14.00
2018-08-11T03:29:49.883Z,14.10
2018-08-11T03:30:23.425Z,14.00
2018-08-11T03:30:56.952Z,14.00
2018-08-11T03:31:30.503Z,14.10
2018-08-11T03:32:04.095Z,14.00
2018-08-11T03:32:37.647Z,14.00
2018-08-11T03:33:11.161Z,14.00
2018-08-11T03:33:44.725Z,13.90
2018-08-11T03:34:18.255Z,14.00
2018-08-11T03:34:51.788Z,14.10
2018-08-11T03:35:25.324Z,14.10
2018-08-11T03:35:58.841Z,14.10
2018-08-11T03:36:32.392Z,14.10
2018-08-11T03:37:06.033Z,14.10
2018-08-11T03:37:39.634Z,14.10
2018-08-11T03:38:13.189Z,14.10
2018-08-11T03:38:46.741Z,14.10
2018-08-11T03:39:20.297Z,14.10
2018-08-11T03:39:53.860Z,14.10
2018-08-11T03:40:27.371Z,14.10
2018-08-11T03:41:00.925Z,14.10
2018-08-11T03:41:34.489Z,14.20
2018-08-11T03:42:08.060Z,14.20
2018-08-11T03:42:42.123Z,14.20
2018-08-11T03:43:15.635Z,14.20
2018-08-11T03:43:49.140Z,14.10
2018-08-11T03:44:22.711Z,14.30
2018-08-11T03:44:56.242Z,14.20
2018-08-11T03:45:29.772Z,14.20
2018-08-11T03:46:03.399Z,14.20
2018-08-11T03:46:36.878Z,14.20
2018-08-11T03:47:10.453Z,14.20
2018-08-11T03:47:43.945Z,14.20
2018-08-11T03:48:17.475Z,14.20
2018-08-11T03:48:51.011Z,14.20
2018-08-11T03:49:24.554Z,14.20
2018-08-11T03:49:58.135Z,14.10
2018-08-11T03:50:31.708Z,14.10
2018-08-11T03:51:05.238Z,14.10
2018-08-11T03:51:38.825Z,14.20
2018-08-11T03:52:12.425Z,14.20
2018-08-11T03:52:45.950Z,14.20
2018-08-11T03:53:19.510Z,14.20
2018-08-11T03:53:53.039Z,14.10
2018-08-11T03:54:26.604Z,14.10
2018-08-11T03:55:00.159Z,14.10
2018-08-11T03:55:33.689Z,14.20
2018-08-11T03:56:07.256Z,14.10
2018-08-11T03:56:40.823Z,14.30
2018-08-11T03:57:14.388Z,14.20
2018-08-11T03:57:47.913Z,14.20
2018-08-11T03:58:21.437Z,14.30
2018-08-11T03:58:54.940Z,14.20
2018-08-11T03:59:28.559Z,14.30
2018-08-11T04:00:02.285Z,14.30
2018-08-11T04:00:35.792Z,14.40
2018-08-11T04:01:09.370Z,14.40
2018-08-11T04:01:42.946Z,14.40
2018-08-11T04:02:16.459Z,14.30
2018-08-11T04:02:50.015Z,14.50
2018-08-11T04:03:23.568Z,14.40
2018-08-11T04:03:57.105Z,14.40
2018-08-11T04:04:30.644Z,14.40
2018-08-11T04:05:04.516Z,14.30
2018-08-11T04:05:38.061Z,14.50
2018-08-11T04:06:11.594Z,14.50
2018-08-11T04:06:45.217Z,14.40
2018-08-11T04:07:18.721Z,14.50
2018-08-11T04:07:52.243Z,14.40
2018-08-11T04:08:25.818Z,14.40
2018-08-11T04:08:59.335Z,14.50
2018-08-11T04:09:32.899Z,14.40
2018-08-11T04:10:06.501Z,14.40
2018-08-11T04:10:40.039Z,14.40
2018-08-11T04:11:13.607Z,14.40
2018-08-11T04:11:47.097Z,14.40
2018-08-11T04:12:20.641Z,14.40
2018-08-11T04:12:54.173Z,14.40
2018-08-11T04:13:27.702Z,14.40
2018-08-11T04:14:01.191Z,14.40
2018-08-11T04:14:34.734Z,14.40
2018-08-11T04:15:08.292Z,14.40
2018-08-11T04:15:41.885Z,14.50
2018-08-11T04:16:15.504Z,14.40
2018-08-11T04:16:49.021Z,14.40
2018-08-11T04:17:31.120Z,14.40
2018-08-11T04:18:04.756Z,14.50
2018-08-11T04:18:38.318Z,14.50
2018-08-11T04:19:11.896Z,14.40
2018-08-11T04:19:45.459Z,14.40
2018-08-11T04:20:19.088Z,14.40
2018-08-11T04:20:52.623Z,14.50
2018-08-11T04:21:26.141Z,14.50
2018-08-11T04:21:59.694Z,14.50
2018-08-11T04:22:33.296Z,14.40
2018-08-11T04:23:06.900Z,14.50
2018-08-11T04:23:40.463Z,14.50
2018-08-11T04:24:14.011Z,14.50
2018-08-11T04:24:47.594Z,14.50
2018-08-11T04:25:21.113Z,14.50
2018-08-11T04:25:54.676Z,14.50
2018-08-11T04:26:28.273Z,14.50
2018-08-11T04:27:01.801Z,14.50
2018-08-11T04:27:35.882Z,14.50
2018-08-11T04:28:09.372Z,14.40
2018-08-11T04:28:42.904Z,14.50
2018-08-11T04:29:16.453Z,14.50
2018-08-11T04:29:50.002Z,14.60
2018-08-11T04:30:23.493Z,14.40
2018-08-11T04:30:57.040Z,14.40
2018-08-11T04:31:30.602Z,14.50
2018-08-11T04:32:04.203Z,14.50
2018-08-11T04:32:37.992Z,14.50
2018-08-11T04:33:11.558Z,14.50
2018-08-11T04:33:45.082Z,14.50
2018-08-11T04:34:18.590Z,14.40
2018-08-11T04:34:52.101Z,14.40
2018-08-11T04:35:25.633Z,14.40
2018-08-11T04:35:59.220Z,14.40
2018-08-11T04:36:32.786Z,14.40
2018-08-11T04:37:06.355Z,14.50
2018-08-11T04:37:39.886Z,14.50
2018-08-11T04:38:13.412Z,14.40
2018-08-11T04:38:46.960Z,14.40
2018-08-11T04:39:20.476Z,14.40
2018-08-11T04:39:54.067Z,14.50
2018-08-11T04:40:27.595Z,14.50
2018-08-11T04:41:01.144Z,14.60
2018-08-11T04:41:34.731Z,14.60
2018-08-11T04:42:08.312Z,14.50
2018-08-11T04:42:41.791Z,14.50
2018-08-11T04:43:15.348Z,14.50
2018-08-11T04:43:48.883Z,14.50
2018-08-11T04:44:22.463Z,14.50
2018-08-11T04:44:55.992Z,14.50
2018-08-11T04:45:29.532Z,14.50
2018-08-11T04:46:03.079Z,14.50
2018-08-11T04:46:36.648Z,14.50
2018-08-11T04:47:10.285Z,14.50
2018-08-11T04:47:43.807Z,14.40
2018-08-11T04:48:17.364Z,14.40
2018-08-11T04:48:50.913Z,14.50
2018-08-11T04:49:24.439Z,14.50
2018-08-11T04:49:57.974Z,14.60
2018-08-11T04:50:31.522Z,14.50
2018-08-11T04:51:05.113Z,14.50
2018-08-11T04:51:38.682Z,14.50
2018-08-11T04:52:12.203Z,14.50
2018-08-11T04:52:45.749Z,14.50
2018-08-11T04:53:19.261Z,14.50
2018-08-11T04:53:52.816Z,14.50
2018-08-11T04:54:26.359Z,14.50
2018-08-11T04:54:59.893Z,14.40
2018-08-11T04:55:33.438Z,14.50
2018-08-11T04:56:06.990Z,14.50
2018-08-11T04:56:40.588Z,14.50
2018-08-11T04:57:14.158Z,14.40
2018-08-11T04:57:47.692Z,14.40
2018-08-11T04:58:21.262Z,14.40
2018-08-11T04:58:54.830Z,14.40
2018-08-11T04:59:28.453Z,14.50
2018-08-11T05:00:02.025Z,14.40
2018-08-11T05:00:35.634Z,14.50
2018-08-11T05:01:09.220Z,14.40
2018-08-11T05:01:42.752Z,14.50
2018-08-11T05:02:16.316Z,14.60
2018-08-11T05:02:49.888Z,14.50
2018-08-11T05:03:23.433Z,14.40
2018-08-11T05:03:57.014Z,14.50
2018-08-11T05:04:30.522Z,14.50
2018-08-11T05:05:04.932Z,14.60
2018-08-11T05:05:38.487Z,14.50
2018-08-11T05:06:12.011Z,14.60
2018-08-11T05:06:45.591Z,14.60
2018-08-11T05:07:19.101Z,14.60
2018-08-11T05:07:52.611Z,14.60
2018-08-11T05:08:26.171Z,14.60
2018-08-11T05:08:59.727Z,14.60
2018-08-11T05:09:33.309Z,14.50
2018-08-11T05:10:07.699Z,14.60
2018-08-11T05:10:41.274Z,14.60
2018-08-11T05:11:14.854Z,14.60
2018-08-11T05:11:48.464Z,14.70
2018-08-11T05:12:22.015Z,14.70
2018-08-11T05:12:55.536Z,14.70
2018-08-11T05:13:29.080Z,14.70
2018-08-11T05:14:02.766Z,14.60
2018-08-11T05:14:36.296Z,14.70
2018-08-11T05:15:09.950Z,14.70
2018-08-11T05:15:43.526Z,14.70
2018-08-11T05:16:17.058Z,14.70
2018-08-11T05:16:50.604Z,14.80
2018-08-11T05:17:24.174Z,14.70
2018-08-11T05:17:57.791Z,14.70
2018-08-11T05:18:31.414Z,14.70
2018-08-11T05:19:05.284Z,14.70
2018-08-11T05:19:38.826Z,14.70
2018-08-11T05:20:12.445Z,14.70
2018-08-11T05:20:45.984Z,14.80
2018-08-11T05:21:19.504Z,14.70
2018-08-11T05:21:53.072Z,14.80
2018-08-11T05:22:26.617Z,14.80
2018-08-11T05:23:00.159Z,14.80
2018-08-11T05:23:33.732Z,14.90
2018-08-11T05:24:07.532Z,14.90
2018-08-11T05:24:41.075Z,14.90
2018-08-11T05:25:14.586Z,14.90
2018-08-11T05:25:48.175Z,14.80
2018-08-11T05:26:21.746Z,14.90
2018-08-11T05:26:55.277Z,15.00
2018-08-11T05:27:28.860Z,14.90
2018-08-11T05:28:02.410Z,15.00
2018-08-11T05:28:35.963Z,15.00
2018-08-11T05:29:09.530Z,15.10
2018-08-11T05:29:43.105Z,15.00
2018-08-11T05:30:16.698Z,15.00
2018-08-11T05:30:50.250Z,15.20
2018-08-11T05:31:23.790Z,15.30
2018-08-11T05:31:57.329Z,15.10
2018-08-11T05:32:30.886Z,15.20
2018-08-11T05:33:04.786Z,15.20
2018-08-11T05:33:38.372Z,15.20
2018-08-11T05:34:11.899Z,15.20
2018-08-11T05:34:45.434Z,15.30
2018-08-11T05:35:18.975Z,15.40
2018-08-11T05:35:52.492Z,15.30
2018-08-11T05:36:26.060Z,15.40
2018-08-11T05:36:59.645Z,15.30
2018-08-11T05:37:33.526Z,15.40
2018-08-11T05:38:07.066Z,15.40
2018-08-11T05:38:40.602Z,15.40
2018-08-11T05:39:14.368Z,15.40
2018-08-11T05:39:47.923Z,15.40
2018-08-11T05:40:21.469Z,15.40
2018-08-11T05:40:55.011Z,15.50
2018-08-11T05:41:28.578Z,15.40
2018-08-11T05:42:02.201Z,15.50
2018-08-11T05:42:35.754Z,15.50
2018-08-11T05:43:09.263Z,15.50
2018-08-11T05:43:42.836Z,15.50
2018-08-11T05:44:16.368Z,15.50
2018-08-11T05:44:49.938Z,15.50
2018-08-11T05:45:23.492Z,15.60
2018-08-11T05:45:57.044Z,15.60
2018-08-11T05:46:30.585Z,15.60
2018-08-11T05:47:04.287Z,15.50
2018-08-11T05:47:37.889Z,15.50
2018-08-11T05:48:11.518Z,15.50
2018-08-11T05:48:45.081Z,15.60
2018-08-11T05:49:18.603Z,15.60
2018-08-11T05:49:52.436Z,15.70
2018-08-11T05:50:25.980Z,15.70
2018-08-11T05:50:59.538Z,15.70
2018-08-11T05:51:33.068Z,15.70
2018-08-11T05:52:06.669Z,15.80
2018-08-11T05:52:40.238Z,15.80
2018-08-11T05:53:13.805Z,15.80
2018-08-11T05:53:47.353Z,15.90
2018-08-11T05:54:20.898Z,15.80
2018-08-11T05:54:54.432Z,15.80
2018-08-11T05:55:27.971Z,16.00
2018-08-11T05:56:01.528Z,16.00
2018-08-11T05:56:35.066Z,15.90
2018-08-11T05:57:08.598Z,16.00
2018-08-11T05:57:42.344Z,16.00
2018-08-11T05:58:15.891Z,16.10
2018-08-11T05:58:49.440Z,16.10
2018-08-11T05:59:23.011Z,16.20
2018-08-11T05:59:56.557Z,16.20
2018-08-11T06:00:30.129Z,16.20
2018-08-11T06:01:03.717Z,16.30
2018-08-11T06:01:37.238Z,16.40
2018-08-11T06:02:10.822Z,16.40
2018-08-11T06:02:44.428Z,16.40
2018-08-11T06:03:18.326Z,16.40
2018-08-11T06:03:51.906Z,16.50
2018-08-11T06:04:25.622Z,16.50
2018-08-11T06:04:59.168Z,16.50
2018-08-11T06:05:32.698Z,16.50
2018-08-11T06:06:06.269Z,16.50
2018-08-11T06:06:39.815Z,16.60
2018-08-11T06:07:13.416Z,16.60
2018-08-11T06:07:46.956Z,16.60
2018-08-11T06:08:20.599Z,16.50
2018-08-11T06:08:54.133Z,16.60
2018-08-11T06:09:27.670Z,16.60
2018-08-11T06:10:01.247Z,16.70
2018-08-11T06:10:34.876Z,16.70
2018-08-11T06:11:08.410Z,16.70
2018-08-11T06:11:42.018Z,16.60
2018-08-11T06:12:15.585Z,16.60
2018-08-11T06:12:49.112Z,16.70
2018-08-11T06:13:22.638Z,16.70
2018-08-11T06:13:56.183Z,16.70
2018-08-11T06:14:29.708Z,16.70
2018-08-11T06:15:03.821Z,16.70
2018-08-11T06:15:37.400Z,16.70
2018-08-11T06:16:10.963Z,16.80
2018-08-11T06:16:44.479Z,16.80
2018-08-11T06:17:18.065Z,16.70
2018-08-11T06:17:51.648Z,16.80
2018-08-11T06:18:25.160Z,16.70
2018-08-11T06:18:58.717Z,16.80
2018-08-11T06:19:32.236Z,16.80
2018-08-11T06:20:07.824Z,16.70
2018-08-11T06:20:41.384Z,16.80
2018-08-11T06:21:15.052Z,16.80
2018-08-11T06:21:48.543Z,16.80
2018-08-11T06:22:22.152Z,16.70
2018-08-11T06:22:55.705Z,16.60
2018-08-11T06:23:29.238Z,16.80
2018-08-11T06:24:02.840Z,16.80
2018-08-11T06:24:36.429Z,16.80
2018-08-11T06:25:10.616Z,16.90
2018-08-11T06:25:44.174Z,16.90
2018-08-11T06:26:17.696Z,16.80
2018-08-11T06:26:51.474Z,16.80
2018-08-11T06:27:25.043Z,16.90
2018-08-11T06:27:58.600Z,16.80
2018-08-11T06:28:32.136Z,16.80
2018-08-11T06:29:05.752Z,16.80
2018-08-11T06:29:39.347Z,16.90
2018-08-11T06:30:12.980Z,16.90
2018-08-11T06:30:46.492Z,16.70
2018-08-11T06:31:20.075Z,16.80
2018-08-11T06:31:53.719Z,16.90
2018-08-11T06:32:27.230Z,16.80
2018-08-11T06:33:00.812Z,16.90
2018-08-11T06:33:34.395Z,16.80
2018-08-11T06:34:07.984Z,16.80
2018-08-11T06:34:41.537Z,16.80
2018-08-11T06:35:15.079Z,16.80
2018-08-11T06:35:48.670Z,16.80
2018-08-11T06:36:22.231Z,16.80
2018-08-11T06:36:55.798Z,16.90
2018-08-11T06:37:29.395Z,16.80
2018-08-11T06:38:03.020Z,16.80
2018-08-11T06:38:36.587Z,16.90
2018-08-11T06:39:12.542Z,16.90
2018-08-11T06:39:46.093Z,16.80
2018-08-11T06:40:19.696Z,16.80
2018-08-11T06:40:53.276Z,16.90
2018-08-11T06:41:26.800Z,16.80
2018-08-11T06:42:00.337Z,16.80
2018-08-11T06:42:33.952Z,16.80
2018-08-11T06:43:07.517Z,16.80
2018-08-11T06:43:41.043Z,16.70
2018-08-11T06:44:14.586Z,16.70
2018-08-11T06:44:48.232Z,16.60
2018-08-11T06:45:22.003Z,16.70
2018-08-11T06:45:55.648Z,16.70
2018-08-11T06:46:29.358Z,16.70
2018-08-11T06:47:03.067Z,16.60
2018-08-11T06:47:36.684Z,16.70
2018-08-11T06:48:10.301Z,16.70
2018-08-11T06:48:43.889Z,16.70
2018-08-11T06:49:17.415Z,16.70
2018-08-11T06:49:50.977Z,16.70
2018-08-11T06:50:24.502Z,16.70
2018-08-11T06:50:58.033Z,16.70
2018-08-11T06:51:31.622Z,16.80
2018-08-11T06:52:05.288Z,16.80
2018-08-11T06:52:38.796Z,16.80
2018-08-11T06:53:12.338Z,16.90
2018-08-11T06:53:45.892Z,16.90
2018-08-11T06:54:19.460Z,16.90
2018-08-11T06:54:53.005Z,17.00
2018-08-11T06:55:26.568Z,17.00
2018-08-11T06:56:00.151Z,17.00
2018-08-11T06:56:33.668Z,17.20
2018-08-11T06:57:07.212Z,17.10
2018-08-11T06:57:40.788Z,17.10
2018-08-11T06:58:14.358Z,17.30
2018-08-11T06:58:47.872Z,17.40
2018-08-11T06:59:21.384Z,17.30
2018-08-11T06:59:55.070Z,17.40
2018-08-11T07:00:28.622Z,17.40
2018-08-11T07:01:02.156Z,17.40
2018-08-11T07:01:35.820Z,17.40
2018-08-11T07:02:09.379Z,17.60
2018-08-11T07:02:42.939Z,17.60
2018-08-11T07:03:16.742Z,17.60
2018-08-11T07:03:50.291Z,17.70
2018-08-11T07:04:23.852Z,17.70
2018-08-11T07:04:57.408Z,17.80
2018-08-11T07:05:30.956Z,17.80
2018-08-11T07:06:04.530Z,17.90
2018-08-11T07:06:38.701Z,17.90
2018-08-11T07:07:12.230Z,17.90
2018-08-11T07:07:45.829Z,18.00
2018-08-11T07:08:19.334Z,18.00
2018-08-11T07:08:52.877Z,18.10
2018-08-11T07:09:26.418Z,18.10
2018-08-11T07:09:59.960Z,18.20
2018-08-11T07:10:33.607Z,18.20
2018-08-11T07:11:07.223Z,18.20
2018-08-11T07:11:40.720Z,18.30
2018-08-11T07:12:14.249Z,18.40
2018-08-11T07:12:47.776Z,18.50
2018-08-11T07:13:21.340Z,18.50
2018-08-11T07:13:54.917Z,18.50